sensor_id;sensor_type;location;lat;lon;timestamp;P1;durP1;ratioP1;P2;durP2;ratioP2
53287;SDS011;39172;45.550;12.072;2023-06-01T00:04:57;3.63;;;3.33;;
53287;SDS011;39172;45.550;12.072;2023-06-01T00:10:57;3.40;;;3.10;;
53287;SDS011;39172;45.550;12.072;2023-06-01T00:16:59;3.40;;;3.10;;
53287;SDS011;39172;45.550;12.072;2023-06-01T00:23:00;3.67;;;3.10;;
53287;SDS011;39172;45.550;12.072;2023-06-01T00:29:03;3.05;;;2.78;;
53287;SDS011;39172;45.550;12.072;2023-06-01T00:35:04;3.13;;;2.83;;
53287;SDS011;39172;45.550;12.072;2023-06-01T00:41:05;3.15;;;2.85;;
53287;SDS011;39172;45.550;12.072;2023-06-01T00:47:06;3.67;;;2.60;;
53287;SDS011;39172;45.550;12.072;2023-06-01T00:53:09;3.10;;;2.80;;
53287;SDS011;39172;45.550;12.072;2023-06-01T00:59:12;3.28;;;2.97;;
53287;SDS011;39172;45.550;12.072;2023-06-01T01:05:12;3.55;;;3.25;;
53287;SDS011;39172;45.550;12.072;2023-06-01T01:17:22;2.70;;;2.50;;
53287;SDS011;39172;45.550;12.072;2023-06-01T01:29:28;2.53;;;2.33;;
53287;SDS011;39172;45.550;12.072;2023-06-01T01:35:32;2.50;;;2.30;;
53287;SDS011;39172;45.550;12.072;2023-06-01T01:41:33;2.80;;;2.60;;
53287;SDS011;39172;45.550;12.072;2023-06-01T01:47:36;2.45;;;2.25;;
53287;SDS011;39172;45.550;12.072;2023-06-01T01:53:41;2.22;;;2.03;;
53287;SDS011;39172;45.550;12.072;2023-06-01T01:59:45;2.45;;;2.20;;
53287;SDS011;39172;45.550;12.072;2023-06-01T02:05:46;2.70;;;2.20;;
53287;SDS011;39172;45.550;12.072;2023-06-01T02:11:47;2.40;;;2.20;;
53287;SDS011;39172;45.550;12.072;2023-06-01T02:17:48;2.40;;;2.20;;
53287;SDS011;39172;45.550;12.072;2023-06-01T02:23:49;2.40;;;2.20;;
53287;SDS011;39172;45.550;12.072;2023-06-01T02:29:50;3.17;;;2.67;;
53287;SDS011;39172;45.550;12.072;2023-06-01T02:35:51;3.72;;;3.33;;
53287;SDS011;39172;45.550;12.072;2023-06-01T02:41:52;3.40;;;3.10;;
53287;SDS011;39172;45.550;12.072;2023-06-01T02:47:53;3.30;;;3.00;;
53287;SDS011;39172;45.550;12.072;2023-06-01T02:53:54;4.13;;;3.72;;
53287;SDS011;39172;45.550;12.072;2023-06-01T02:59:55;4.82;;;3.50;;
53287;SDS011;39172;45.550;12.072;2023-06-01T03:05:56;4.35;;;3.95;;
53287;SDS011;39172;45.550;12.072;2023-06-01T03:12:16;4.18;;;3.78;;
53287;SDS011;39172;45.550;12.072;2023-06-01T03:18:17;4.50;;;4.00;;
53287;SDS011;39172;45.550;12.072;2023-06-01T03:24:18;4.47;;;4.07;;
53287;SDS011;39172;45.550;12.072;2023-06-01T03:30:19;4.88;;;4.38;;
53287;SDS011;39172;45.550;12.072;2023-06-01T03:36:23;4.65;;;4.15;;
53287;SDS011;39172;45.550;12.072;2023-06-01T03:42:24;4.07;;;3.67;;
53287;SDS011;39172;45.550;12.072;2023-06-01T03:48:25;3.47;;;3.17;;
53287;SDS011;39172;45.550;12.072;2023-06-01T03:54:26;3.47;;;3.17;;
53287;SDS011;39172;45.550;12.072;2023-06-01T04:00:26;3.33;;;2.88;;
53287;SDS011;39172;45.550;12.072;2023-06-01T04:06:27;3.17;;;2.88;;
53287;SDS011;39172;45.550;12.072;2023-06-01T04:12:30;2.70;;;2.50;;
53287;SDS011;39172;45.550;12.072;2023-06-01T04:18:31;2.75;;;2.53;;
53287;SDS011;39172;45.550;12.072;2023-06-01T04:24:35;4.13;;;3.55;;
53287;SDS011;39172;45.550;12.072;2023-06-01T04:30:36;2.72;;;2.53;;
53287;SDS011;39172;45.550;12.072;2023-06-01T04:36:38;4.03;;;3.63;;
53287;SDS011;39172;45.550;12.072;2023-06-01T04:42:41;5.63;;;4.30;;
53287;SDS011;39172;45.550;12.072;2023-06-01T04:48:43;5.18;;;4.22;;
53287;SDS011;39172;45.550;12.072;2023-06-01T04:54:45;4.20;;;3.50;;
53287;SDS011;39172;45.550;12.072;2023-06-01T05:00:46;3.47;;;3.10;;
53287;SDS011;39172;45.550;12.072;2023-06-01T05:06:48;4.97;;;4.22;;
53287;SDS011;39172;45.550;12.072;2023-06-01T05:12:49;3.00;;;2.70;;
53287;SDS011;39172;45.550;12.072;2023-06-01T05:18:52;4.57;;;4.18;;
53287;SDS011;39172;45.550;12.072;2023-06-01T05:24:53;5.80;;;5.22;;
53287;SDS011;39172;45.550;12.072;2023-06-01T05:30:54;4.03;;;3.55;;
53287;SDS011;39172;45.550;12.072;2023-06-01T05:36:55;5.53;;;4.95;;
53287;SDS011;39172;45.550;12.072;2023-06-01T05:42:56;4.10;;;3.70;;
53287;SDS011;39172;45.550;12.072;2023-06-01T05:48:57;5.07;;;4.40;;
53287;SDS011;39172;45.550;12.072;2023-06-01T05:54:58;3.78;;;3.28;;
53287;SDS011;39172;45.550;12.072;2023-06-01T06:01:00;4.00;;;3.60;;
53287;SDS011;39172;45.550;12.072;2023-06-01T06:07:01;5.25;;;4.07;;
53287;SDS011;39172;45.550;12.072;2023-06-01T06:13:02;5.75;;;5.15;;
53287;SDS011;39172;45.550;12.072;2023-06-01T06:19:04;4.25;;;3.42;;
53287;SDS011;39172;45.550;12.072;2023-06-01T06:25:05;4.80;;;4.30;;
53287;SDS011;39172;45.550;12.072;2023-06-01T06:31:07;4.13;;;3.72;;
53287;SDS011;39172;45.550;12.072;2023-06-01T06:37:07;4.35;;;3.92;;
53287;SDS011;39172;45.550;12.072;2023-06-01T06:43:08;5.05;;;4.55;;
53287;SDS011;39172;45.550;12.072;2023-06-01T06:49:09;5.75;;;4.63;;
53287;SDS011;39172;45.550;12.072;2023-06-01T06:55:10;6.20;;;4.80;;
53287;SDS011;39172;45.550;12.072;2023-06-01T07:01:11;5.53;;;4.65;;
53287;SDS011;39172;45.550;12.072;2023-06-01T07:07:13;8.38;;;4.85;;
53287;SDS011;39172;45.550;12.072;2023-06-01T07:13:14;4.43;;;3.70;;
53287;SDS011;39172;45.550;12.072;2023-06-01T07:19:16;5.05;;;3.90;;
53287;SDS011;39172;45.550;12.072;2023-06-01T07:25:17;4.43;;;4.03;;
53287;SDS011;39172;45.550;12.072;2023-06-01T07:31:18;4.95;;;4.10;;
53287;SDS011;39172;45.550;12.072;2023-06-01T07:37:19;5.28;;;4.43;;
53287;SDS011;39172;45.550;12.072;2023-06-01T07:43:22;4.78;;;4.28;;
53287;SDS011;39172;45.550;12.072;2023-06-01T07:49:23;6.57;;;4.10;;
53287;SDS011;39172;45.550;12.072;2023-06-01T07:55:24;4.10;;;3.65;;
53287;SDS011;39172;45.550;12.072;2023-06-01T08:01:25;5.38;;;4.50;;
53287;SDS011;39172;45.550;12.072;2023-06-01T08:07:26;5.10;;;4.60;;
53287;SDS011;39172;45.550;12.072;2023-06-01T08:13:28;9.00;;;5.00;;
53287;SDS011;39172;45.550;12.072;2023-06-01T08:19:29;6.32;;;4.93;;
53287;SDS011;39172;45.550;12.072;2023-06-01T08:25:30;6.30;;;4.88;;
53287;SDS011;39172;45.550;12.072;2023-06-01T08:31:31;5.85;;;5.20;;
53287;SDS011;39172;45.550;12.072;2023-06-01T08:37:33;5.95;;;5.07;;
53287;SDS011;39172;45.550;12.072;2023-06-01T08:43:34;7.07;;;5.40;;
53287;SDS011;39172;45.550;12.072;2023-06-01T08:49:36;6.22;;;5.05;;
53287;SDS011;39172;45.550;12.072;2023-06-01T08:55:37;5.85;;;5.18;;
53287;SDS011;39172;45.550;12.072;2023-06-01T09:01:38;6.43;;;5.15;;
53287;SDS011;39172;45.550;12.072;2023-06-01T09:07:39;5.72;;;5.10;;
53287;SDS011;39172;45.550;12.072;2023-06-01T09:13:41;6.70;;;5.30;;
53287;SDS011;39172;45.550;12.072;2023-06-01T09:19:45;6.43;;;5.05;;
53287;SDS011;39172;45.550;12.072;2023-06-01T09:25:46;5.78;;;5.22;;
53287;SDS011;39172;45.550;12.072;2023-06-01T09:31:47;6.07;;;5.10;;
53287;SDS011;39172;45.550;12.072;2023-06-01T09:37:55;6.63;;;5.47;;
53287;SDS011;39172;45.550;12.072;2023-06-01T09:43:59;5.72;;;5.10;;
53287;SDS011;39172;45.550;12.072;2023-06-01T09:50:00;5.85;;;5.13;;
53287;SDS011;39172;45.550;12.072;2023-06-01T09:56:03;6.47;;;5.10;;
53287;SDS011;39172;45.550;12.072;2023-06-01T10:02:05;5.55;;;5.05;;
53287;SDS011;39172;45.550;12.072;2023-06-01T10:08:07;6.80;;;5.10;;
53287;SDS011;39172;45.550;12.072;2023-06-01T10:14:09;6.80;;;5.50;;
53287;SDS011;39172;45.550;12.072;2023-06-01T10:20:11;6.22;;;5.32;;
53287;SDS011;39172;45.550;12.072;2023-06-01T10:26:13;7.40;;;5.43;;
53287;SDS011;39172;45.550;12.072;2023-06-01T10:38:36;5.78;;;5.18;;
53287;SDS011;39172;45.550;12.072;2023-06-01T10:50:41;6.30;;;5.70;;
53287;SDS011;39172;45.550;12.072;2023-06-01T10:56:42;6.70;;;5.95;;
53287;SDS011;39172;45.550;12.072;2023-06-01T11:08:54;6.03;;;5.32;;
53287;SDS011;39172;45.550;12.072;2023-06-01T11:15:08;7.43;;;5.60;;
53287;SDS011;39172;45.550;12.072;2023-06-01T11:21:16;5.80;;;5.13;;
53287;SDS011;39172;45.550;12.072;2023-06-01T11:27:18;6.35;;;5.57;;
53287;SDS011;39172;45.550;12.072;2023-06-01T11:33:19;6.07;;;5.47;;
53287;SDS011;39172;45.550;12.072;2023-06-01T11:45:21;5.85;;;5.25;;
53287;SDS011;39172;45.550;12.072;2023-06-01T11:51:22;5.68;;;5.15;;
53287;SDS011;39172;45.550;12.072;2023-06-01T11:57:23;6.60;;;4.93;;
53287;SDS011;39172;45.550;12.072;2023-06-01T12:03:24;6.35;;;5.50;;
53287;SDS011;39172;45.550;12.072;2023-06-01T12:09:25;5.63;;;4.90;;
53287;SDS011;39172;45.550;12.072;2023-06-01T12:15:26;5.85;;;4.32;;
53287;SDS011;39172;45.550;12.072;2023-06-01T12:21:27;4.95;;;4.45;;
53287;SDS011;39172;45.550;12.072;2023-06-01T12:27:27;5.18;;;4.35;;
53287;SDS011;39172;45.550;12.072;2023-06-01T12:33:35;4.78;;;4.28;;
53287;SDS011;39172;45.550;12.072;2023-06-01T12:39:36;5.82;;;4.50;;
53287;SDS011;39172;45.550;12.072;2023-06-01T12:45:37;5.05;;;4.22;;
53287;SDS011;39172;45.550;12.072;2023-06-01T12:51:38;4.43;;;4.00;;
53287;SDS011;39172;45.550;12.072;2023-06-01T12:57:39;4.65;;;4.25;;
53287;SDS011;39172;45.550;12.072;2023-06-01T13:03:40;4.95;;;4.40;;
53287;SDS011;39172;45.550;12.072;2023-06-01T13:09:41;4.88;;;4.32;;
53287;SDS011;39172;45.550;12.072;2023-06-01T13:15:42;5.00;;;3.95;;
53287;SDS011;39172;45.550;12.072;2023-06-01T13:21:43;4.30;;;3.90;;
53287;SDS011;39172;45.550;12.072;2023-06-01T13:27:44;4.85;;;4.28;;
53287;SDS011;39172;45.550;12.072;2023-06-01T13:33:45;4.72;;;4.32;;
53287;SDS011;39172;45.550;12.072;2023-06-01T13:39:46;4.97;;;4.45;;
53287;SDS011;39172;45.550;12.072;2023-06-01T13:45:47;4.97;;;4.47;;
53287;SDS011;39172;45.550;12.072;2023-06-01T13:51:48;4.30;;;3.90;;
53287;SDS011;39172;45.550;12.072;2023-06-01T13:57:49;4.65;;;4.25;;
53287;SDS011;39172;45.550;12.072;2023-06-01T14:03:50;5.13;;;4.35;;
53287;SDS011;39172;45.550;12.072;2023-06-01T14:09:51;4.13;;;3.72;;
53287;SDS011;39172;45.550;12.072;2023-06-01T14:15:52;5.00;;;4.50;;
53287;SDS011;39172;45.550;12.072;2023-06-01T14:21:53;5.32;;;4.35;;
53287;SDS011;39172;45.550;12.072;2023-06-01T14:27:54;4.50;;;4.10;;
53287;SDS011;39172;45.550;12.072;2023-06-01T14:33:55;4.25;;;3.85;;
53287;SDS011;39172;45.550;12.072;2023-06-01T14:39:56;4.13;;;3.72;;
53287;SDS011;39172;45.550;12.072;2023-06-01T14:45:57;5.05;;;4.28;;
53287;SDS011;39172;45.550;12.072;2023-06-01T14:51:58;4.47;;;4.10;;
53287;SDS011;39172;45.550;12.072;2023-06-01T14:57:59;4.32;;;3.92;;
53287;SDS011;39172;45.550;12.072;2023-06-01T15:04:01;4.20;;;3.80;;
53287;SDS011;39172;45.550;12.072;2023-06-01T15:10:02;4.70;;;4.30;;
53287;SDS011;39172;45.550;12.072;2023-06-01T15:16:03;4.10;;;3.75;;
53287;SDS011;39172;45.550;12.072;2023-06-01T15:22:04;4.40;;;4.07;;
53287;SDS011;39172;45.550;12.072;2023-06-01T15:28:05;4.00;;;3.70;;
53287;SDS011;39172;45.550;12.072;2023-06-01T15:34:06;3.95;;;3.65;;
53287;SDS011;39172;45.550;12.072;2023-06-01T15:40:13;3.47;;;3.28;;
53287;SDS011;39172;45.550;12.072;2023-06-01T15:46:15;4.10;;;3.70;;
53287;SDS011;39172;45.550;12.072;2023-06-01T15:52:16;3.70;;;3.40;;
53287;SDS011;39172;45.550;12.072;2023-06-01T15:58:17;3.50;;;3.20;;
53287;SDS011;39172;45.550;12.072;2023-06-01T16:04:18;3.65;;;3.35;;
53287;SDS011;39172;45.550;12.072;2023-06-01T16:10:19;3.70;;;3.40;;
53287;SDS011;39172;45.550;12.072;2023-06-01T16:16:20;3.17;;;2.97;;
53287;SDS011;39172;45.550;12.072;2023-06-01T16:22:22;3.28;;;2.97;;
53287;SDS011;39172;45.550;12.072;2023-06-01T16:28:23;3.10;;;2.90;;
53287;SDS011;39172;45.550;12.072;2023-06-01T16:34:24;3.40;;;3.10;;
53287;SDS011;39172;45.550;12.072;2023-06-01T16:40:25;3.55;;;3.25;;
53287;SDS011;39172;45.550;12.072;2023-06-01T16:46:26;3.63;;;3.33;;
53287;SDS011;39172;45.550;12.072;2023-06-01T16:52:27;3.50;;;3.20;;
53287;SDS011;39172;45.550;12.072;2023-06-01T16:58:28;3.45;;;3.15;;
53287;SDS011;39172;45.550;12.072;2023-06-01T17:04:28;3.20;;;2.90;;
53287;SDS011;39172;45.550;12.072;2023-06-01T17:10:29;3.72;;;3.38;;
53287;SDS011;39172;45.550;12.072;2023-06-01T17:16:30;2.90;;;2.70;;
53287;SDS011;39172;45.550;12.072;2023-06-01T17:22:31;3.13;;;2.75;;
53287;SDS011;39172;45.550;12.072;2023-06-01T17:28:32;2.53;;;2.33;;
53287;SDS011;39172;45.550;12.072;2023-06-01T17:34:34;2.90;;;2.70;;
53287;SDS011;39172;45.550;12.072;2023-06-01T17:40:35;2.88;;;2.67;;
53287;SDS011;39172;45.550;12.072;2023-06-01T17:46:36;2.60;;;2.40;;
53287;SDS011;39172;45.550;12.072;2023-06-01T17:52:37;3.25;;;2.80;;
53287;SDS011;39172;45.550;12.072;2023-06-01T17:58:38;2.60;;;2.40;;
53287;SDS011;39172;45.550;12.072;2023-06-01T18:04:39;2.70;;;2.50;;
53287;SDS011;39172;45.550;12.072;2023-06-01T18:10:39;2.67;;;2.40;;
53287;SDS011;39172;45.550;12.072;2023-06-01T18:16:42;2.53;;;2.33;;
53287;SDS011;39172;45.550;12.072;2023-06-01T18:22:43;2.63;;;2.40;;
53287;SDS011;39172;45.550;12.072;2023-06-01T18:28:44;2.72;;;2.50;;
53287;SDS011;39172;45.550;12.072;2023-06-01T18:34:45;2.53;;;2.33;;
53287;SDS011;39172;45.550;12.072;2023-06-01T18:40:47;2.70;;;2.50;;
53287;SDS011;39172;45.550;12.072;2023-06-01T18:46:48;2.78;;;2.58;;
53287;SDS011;39172;45.550;12.072;2023-06-01T18:52:48;3.13;;;2.72;;
53287;SDS011;39172;45.550;12.072;2023-06-01T18:58:49;3.63;;;3.33;;
53287;SDS011;39172;45.550;12.072;2023-06-01T19:04:54;3.53;;;3.22;;
53287;SDS011;39172;45.550;12.072;2023-06-01T19:16:59;3.20;;;2.90;;
53287;SDS011;39172;45.550;12.072;2023-06-01T19:23:04;3.40;;;3.10;;
53287;SDS011;39172;45.550;12.072;2023-06-01T19:29:09;3.97;;;3.58;;
53287;SDS011;39172;45.550;12.072;2023-06-01T19:35:10;3.83;;;3.50;;
53287;SDS011;39172;45.550;12.072;2023-06-01T19:41:11;4.50;;;4.07;;
53287;SDS011;39172;45.550;12.072;2023-06-01T19:47:39;4.30;;;3.90;;
53287;SDS011;39172;45.550;12.072;2023-06-01T19:53:36;4.60;;;4.20;;
53287;SDS011;39172;45.550;12.072;2023-06-01T19:59:37;5.00;;;4.50;;
53287;SDS011;39172;45.550;12.072;2023-06-01T20:05:41;5.90;;;4.75;;
53287;SDS011;39172;45.550;12.072;2023-06-01T20:11:46;5.63;;;4.97;;
53287;SDS011;39172;45.550;12.072;2023-06-01T20:17:47;6.47;;;5.13;;
53287;SDS011;39172;45.550;12.072;2023-06-01T20:23:48;5.97;;;5.38;;
53287;SDS011;39172;45.550;12.072;2023-06-01T20:29:49;5.30;;;4.80;;
53287;SDS011;39172;45.550;12.072;2023-06-01T20:35:51;5.47;;;4.97;;
53287;SDS011;39172;45.550;12.072;2023-06-01T20:41:52;7.07;;;6.25;;
53287;SDS011;39172;45.550;12.072;2023-06-01T20:47:56;6.90;;;5.90;;
53287;SDS011;39172;45.550;12.072;2023-06-01T20:53:58;6.22;;;5.60;;
53287;SDS011;39172;45.550;12.072;2023-06-01T20:59:59;5.85;;;5.25;;
53287;SDS011;39172;45.550;12.072;2023-06-01T21:06:00;6.03;;;4.50;;
53287;SDS011;39172;45.550;12.072;2023-06-01T21:12:00;4.50;;;4.10;;
53287;SDS011;39172;45.550;12.072;2023-06-01T21:18:02;4.32;;;3.92;;
53287;SDS011;39172;45.550;12.072;2023-06-01T21:24:03;4.30;;;3.90;;
53287;SDS011;39172;45.550;12.072;2023-06-01T21:30:05;3.75;;;3.45;;
53287;SDS011;39172;45.550;12.072;2023-06-01T21:36:06;3.63;;;3.33;;
53287;SDS011;39172;45.550;12.072;2023-06-01T21:42:07;3.25;;;3.00;;
53287;SDS011;39172;45.550;12.072;2023-06-01T21:48:08;3.53;;;3.22;;
53287;SDS011;39172;45.550;12.072;2023-06-01T21:54:09;3.42;;;3.08;;
53287;SDS011;39172;45.550;12.072;2023-06-01T22:00:10;3.40;;;3.10;;
53287;SDS011;39172;45.550;12.072;2023-06-01T22:06:13;3.08;;;2.78;;
53287;SDS011;39172;45.550;12.072;2023-06-01T22:12:14;3.10;;;2.70;;
53287;SDS011;39172;45.550;12.072;2023-06-01T22:18:16;2.60;;;2.40;;
53287;SDS011;39172;45.550;12.072;2023-06-01T22:24:17;3.20;;;2.90;;
53287;SDS011;39172;45.550;12.072;2023-06-01T22:30:18;3.00;;;2.70;;
53287;SDS011;39172;45.550;12.072;2023-06-01T22:36:19;3.83;;;3.42;;
53287;SDS011;39172;45.550;12.072;2023-06-01T22:42:20;4.00;;;3.50;;
53287;SDS011;39172;45.550;12.072;2023-06-01T22:48:21;4.30;;;3.90;;
53287;SDS011;39172;45.550;12.072;2023-06-01T22:54:22;5.20;;;4.70;;
53287;SDS011;39172;45.550;12.072;2023-06-01T23:00:24;4.60;;;4.20;;
53287;SDS011;39172;45.550;12.072;2023-06-01T23:06:25;4.35;;;3.95;;
53287;SDS011;39172;45.550;12.072;2023-06-01T23:12:26;4.90;;;4.03;;
53287;SDS011;39172;45.550;12.072;2023-06-01T23:18:30;4.00;;;3.65;;
53287;SDS011;39172;45.550;12.072;2023-06-01T23:24:31;5.55;;;5.03;;
53287;SDS011;39172;45.550;12.072;2023-06-01T23:30:32;4.85;;;4.35;;
53287;SDS011;39172;45.550;12.072;2023-06-01T23:36:33;5.70;;;4.28;;
53287;SDS011;39172;45.550;12.072;2023-06-01T23:42:37;4.35;;;3.95;;
53287;SDS011;39172;45.550;12.072;2023-06-01T23:48:38;4.07;;;3.70;;
53287;SDS011;39172;45.550;12.072;2023-06-01T23:54:39;3.70;;;3.40;;
